Haderslev, Denmark
Current Conditions -  °F | °C
As of 5:00 AM on Sunday 21 Dec 2014 (Local Time) from EKSP Reporting Station
Few Clouds Few Clouds  
Wind Chill: 32°   Ceiling: Unl
Heat Index: 39°   Visibility: 6mi
Dew Point: 36°   Wind: 12mph
Humidity: 87%   Direction: 270°W
Pressure: 30.03"   Gusts: NA
Location:  55.25°N, 9.49°E
Report Text: EKSP 210400Z 27010KT 9999 FEW025 04/02 Q1017
Loading
Personal Weather Stations






























Interactive Weather Map New forecast layout! Learn more

10-Day Weather Forecast

Advertisements
Track Severe Weather on mobile